createdAt,value
2022-10-15T00:02:06.694Z,99655.78
2022-10-15T00:07:05.405Z,99658.19
2022-10-15T00:12:04.357Z,99653.31
2022-10-15T00:17:03.080Z,99665.81
2022-10-15T00:27:05.903Z,99654.16
2022-10-15T00:32:04.695Z,99652.81
2022-10-15T00:37:03.505Z,99651.69
2022-10-15T00:42:02.921Z,99633.47
2022-10-15T00:47:18.989Z,99634.31
2022-10-15T00:52:23.804Z,99626.09
2022-10-15T00:57:24.971Z,99635.97
2022-10-15T01:02:23.840Z,99631.34
2022-10-15T01:07:22.843Z,99619.38
2022-10-15T01:12:49.499Z,99612.81
2022-10-15T01:18:26.811Z,99604.41
2022-10-15T01:23:54.979Z,99595.91
2022-10-15T01:28:59.781Z,99598.94
2022-10-15T01:39:43.051Z,99593.28
2022-10-15T01:44:52.537Z,99597.38
2022-10-15T01:50:13.837Z,99592.56
2022-10-15T01:55:15.503Z,99589.56
2022-10-15T02:00:14.395Z,99590.06
2022-10-15T02:05:24.329Z,99578.13
2022-10-15T02:10:34.729Z,99592.00
2022-10-15T02:15:45.927Z,99580.03
2022-10-15T02:20:58.533Z,99580.38
2022-10-15T02:32:54.218Z,99562.13
2022-10-15T02:37:56.122Z,99549.84
2022-10-15T02:42:56.273Z,99547.44
2022-10-15T02:47:55.520Z,99539.00
2022-10-15T02:52:56.093Z,99541.50
2022-10-15T02:57:54.754Z,99535.19
2022-10-15T03:02:53.822Z,99535.47
2022-10-15T03:07:52.946Z,99528.94
2022-10-15T03:12:51.997Z,99529.50
2022-10-15T03:17:51.353Z,99525.34
2022-10-15T03:22:50.198Z,99523.53
2022-10-15T03:27:48.985Z,99524.38
2022-10-15T03:32:56.360Z,99521.94
2022-10-15T03:37:55.222Z,99513.50
2022-10-15T03:42:56.491Z,99519.69
2022-10-15T03:47:56.556Z,99513.25
2022-10-15T03:52:58.309Z,99514.59
2022-10-15T03:57:57.209Z,99520.25
2022-10-15T04:02:56.138Z,99519.72
2022-10-15T04:07:58.278Z,99519.72
2022-10-15T04:12:58.771Z,99518.06
2022-10-15T04:17:58.519Z,99524.38
2022-10-15T04:22:59.826Z,99526.63
2022-10-15T04:27:59.772Z,99524.19
2022-10-15T04:32:58.676Z,99525.22
2022-10-15T04:37:59.668Z,99526.88
2022-10-15T04:43:01.890Z,99520.31
2022-10-15T04:48:00.818Z,99519.44
2022-10-15T04:52:59.663Z,99514.22
2022-10-15T04:58:00.316Z,99510.78
2022-10-15T05:03:02.904Z,99500.25
2022-10-15T05:08:29.211Z,99501.09
2022-10-15T05:13:48.557Z,99498.91
2022-10-15T05:18:49.443Z,99508.44
2022-10-15T05:23:50.263Z,99514.66
2022-10-15T05:29:07.611Z,99514.38
2022-10-15T05:34:08.339Z,99515.25
2022-10-15T05:39:29.512Z,99518.97
2022-10-15T05:44:28.599Z,99515.22
2022-10-15T05:49:27.267Z,99510.28
2022-10-15T05:54:36.332Z,99509.75
2022-10-15T05:59:35.051Z,99511.13
2022-10-15T06:04:35.713Z,99513.00
2022-10-15T06:09:35.000Z,99511.41
2022-10-15T06:14:33.709Z,99502.97
2022-10-15T06:19:33.327Z,99507.25
2022-10-15T06:24:32.038Z,99517.25
2022-10-15T06:29:31.022Z,99512.13
2022-10-15T06:34:33.434Z,99523.47
2022-10-15T06:39:32.208Z,99540.28
2022-10-15T06:44:30.863Z,99541.31
2022-10-15T06:49:29.608Z,99545.19
2022-10-15T06:54:28.373Z,99551.34
2022-10-15T06:59:27.143Z,99548.00
2022-10-15T07:04:27.498Z,99543.91
2022-10-15T07:09:26.368Z,99552.88
2022-10-15T07:14:25.080Z,99557.09
2022-10-15T07:19:24.079Z,99551.66
2022-10-15T07:24:22.771Z,99557.31
2022-10-15T07:29:21.579Z,99558.34
2022-10-15T07:34:20.542Z,99551.53
2022-10-15T07:39:19.682Z,99546.88
2022-10-15T07:44:18.429Z,99548.75
2022-10-15T07:49:17.155Z,99551.38
2022-10-15T07:54:17.112Z,99554.13
2022-10-15T07:59:15.808Z,99536.50
2022-10-15T08:04:14.446Z,99552.78
2022-10-15T08:09:14.042Z,99568.59
2022-10-15T08:14:12.899Z,99576.09
2022-10-15T08:19:11.631Z,99582.41
2022-10-15T08:24:10.523Z,99575.09
2022-10-15T08:29:10.934Z,99585.25
2022-10-15T08:34:09.815Z,99584.00
2022-10-15T08:39:09.286Z,99578.28
2022-10-15T08:44:20.323Z,99575.88
2022-10-15T08:49:34.176Z,99582.41
2022-10-15T08:54:35.553Z,99598.94
2022-10-15T08:59:43.524Z,99605.63
2022-10-15T09:04:53.627Z,99597.63
2022-10-15T09:10:13.029Z,99592.84
2022-10-15T09:15:23.968Z,99598.03
2022-10-15T09:20:36.949Z,99594.00
2022-10-15T09:25:36.977Z,99595.53
2022-10-15T09:30:49.550Z,99609.69
2022-10-15T09:36:06.829Z,99620.09
2022-10-15T09:41:25.271Z,99627.03
2022-10-15T09:46:23.945Z,99624.19
2022-10-15T09:51:34.214Z,99619.06
2022-10-15T09:56:39.674Z,99635.66
2022-10-15T10:01:38.506Z,99635.19
2022-10-15T10:06:52.328Z,99638.72
2022-10-15T10:11:54.942Z,99638.97
2022-10-15T10:17:20.502Z,99650.88
2022-10-15T10:22:20.346Z,99648.34
2022-10-15T10:27:27.967Z,99656.03
2022-10-15T10:32:31.167Z,99641.81
2022-10-15T10:37:42.551Z,99642.47
2022-10-15T10:42:42.793Z,99648.22
2022-10-15T10:47:44.173Z,99644.69
2022-10-15T10:52:45.475Z,99647.22
2022-10-15T10:57:50.760Z,99642.06
2022-10-15T11:02:52.105Z,99646.44
2022-10-15T11:08:12.644Z,99647.16
2022-10-15T11:13:17.418Z,99651.31
2022-10-15T11:18:48.075Z,99645.09
2022-10-15T11:24:11.331Z,99646.75
2022-10-15T11:29:28.804Z,99652.41
2022-10-15T11:34:42.880Z,99638.63
2022-10-15T11:39:55.163Z,99643.19
2022-10-15T11:45:00.711Z,99641.56
2022-10-15T11:50:33.205Z,99641.06
2022-10-15T11:55:39.450Z,99658.97
2022-10-15T12:00:53.932Z,99655.66
2022-10-15T12:05:59.585Z,99647.00
2022-10-15T12:11:25.058Z,99642.03
2022-10-15T12:16:30.309Z,99646.44
2022-10-15T12:21:44.250Z,99651.84
2022-10-15T12:26:43.018Z,99642.63
2022-10-15T12:31:44.394Z,99645.84
2022-10-15T12:36:43.220Z,99641.81
2022-10-15T12:41:45.432Z,99643.03
2022-10-15T12:46:44.352Z,99647.06
2022-10-15T12:51:43.322Z,99642.28
2022-10-15T12:56:44.073Z,99654.13
2022-10-15T13:01:42.701Z,99649.75
2022-10-15T13:06:41.469Z,99649.47
2022-10-15T13:16:55.908Z,99618.16
2022-10-15T13:21:57.436Z,99623.56
2022-10-15T13:27:00.753Z,99625.84
2022-10-15T13:32:00.728Z,99625.25
2022-10-15T13:37:01.837Z,99626.38
2022-10-15T13:42:22.117Z,99626.38
2022-10-15T13:47:48.452Z,99634.59
2022-10-15T13:52:52.742Z,99637.19
2022-10-15T13:57:57.183Z,99645.41
2022-10-15T14:03:23.037Z,99641.00
2022-10-15T14:08:50.046Z,99636.53
2022-10-15T14:13:51.746Z,99643.16
2022-10-15T14:18:57.351Z,99641.59
2022-10-15T14:24:13.020Z,99653.25
2022-10-15T14:29:39.076Z,99660.66
2022-10-15T14:34:40.449Z,99658.94
2022-10-15T14:39:39.384Z,99665.91
2022-10-15T14:44:56.273Z,99665.78
2022-10-15T14:49:59.988Z,99671.16
2022-10-15T14:55:14.226Z,99670.25
2022-10-15T15:00:35.909Z,99672.97
2022-10-15T15:05:49.212Z,99669.03
2022-10-15T15:15:53.650Z,99668.00
2022-10-15T15:20:52.972Z,99664.25
2022-10-15T15:25:52.510Z,99666.38
2022-10-15T15:30:57.336Z,99675.94
2022-10-15T15:36:00.892Z,99681.59
2022-10-15T15:41:03.394Z,99683.47
2022-10-15T15:46:02.156Z,99697.88
2022-10-15T15:51:07.603Z,99710.00
2022-10-15T15:56:06.724Z,99707.19
2022-10-15T16:01:05.601Z,99712.13
2022-10-15T16:06:06.684Z,99712.66
2022-10-15T16:11:06.819Z,99723.66
2022-10-15T16:16:05.815Z,99717.78
2022-10-15T16:21:04.820Z,99715.16
2022-10-15T16:26:03.468Z,99721.75
2022-10-15T16:31:26.434Z,99734.50
2022-10-15T16:36:28.571Z,99733.81
2022-10-15T16:41:27.409Z,99756.22
2022-10-15T16:46:26.173Z,99762.81
2022-10-15T16:51:25.946Z,99757.69
2022-10-15T16:56:29.447Z,99767.59
2022-10-15T17:01:29.751Z,99779.47
2022-10-15T17:06:30.942Z,99767.47
2022-10-15T17:11:40.102Z,99776.13
2022-10-15T17:16:40.395Z,99785.44
2022-10-15T17:21:42.379Z,99795.38
2022-10-15T17:26:42.975Z,99800.59
2022-10-15T17:31:42.188Z,99805.03
2022-10-15T17:36:45.598Z,99808.88
2022-10-15T17:41:45.803Z,99812.84
2022-10-15T17:46:44.692Z,99816.41
2022-10-15T17:51:44.400Z,99810.47
2022-10-15T17:56:43.122Z,99817.28
2022-10-15T18:01:57.720Z,99817.00
2022-10-15T18:06:57.942Z,99820.38
2022-10-15T18:12:00.985Z,99838.63
2022-10-15T18:17:02.332Z,99852.56
2022-10-15T18:22:04.222Z,99849.84
2022-10-15T18:27:02.915Z,99845.53
2022-10-15T18:32:02.010Z,99851.06
2022-10-15T18:37:01.656Z,99848.84
2022-10-15T18:42:00.412Z,99856.47
2022-10-15T18:46:59.209Z,99860.28
2022-10-15T18:52:00.411Z,99866.00
2022-10-15T18:57:05.677Z,99863.28
2022-10-15T19:02:04.488Z,99861.69
2022-10-15T19:07:05.129Z,99875.88
2022-10-15T19:12:04.627Z,99875.84
2022-10-15T19:17:03.508Z,99865.50
2022-10-15T19:22:02.336Z,99862.47
2022-10-15T19:27:01.040Z,99863.03
2022-10-15T19:32:00.156Z,99862.50
2022-10-15T19:36:58.888Z,99871.22
2022-10-15T19:41:57.728Z,99870.75
2022-10-15T19:46:56.614Z,99883.00
2022-10-15T19:51:55.743Z,99887.94
2022-10-15T19:56:54.410Z,99876.22
2022-10-15T20:01:53.165Z,99884.41
2022-10-15T20:06:52.937Z,99899.06
2022-10-15T20:11:51.808Z,99901.53
2022-10-15T20:16:50.705Z,99904.25
2022-10-15T20:21:50.732Z,99909.38
2022-10-15T20:26:50.564Z,99923.53
2022-10-15T20:31:51.305Z,99922.47
2022-10-15T20:36:53.629Z,99923.28
2022-10-15T20:41:52.557Z,99924.91
2022-10-15T20:47:02.621Z,99945.28
2022-10-15T20:52:03.006Z,99950.19
2022-10-15T20:57:02.378Z,99956.47
2022-10-15T21:02:01.267Z,99971.44
2022-10-15T21:07:00.099Z,99972.75
2022-10-15T21:11:58.884Z,99965.09
2022-10-15T21:16:57.839Z,99969.22
2022-10-15T21:21:56.706Z,99973.84
2022-10-15T21:26:56.366Z,99979.56
2022-10-15T21:31:55.153Z,99984.44
2022-10-15T21:36:55.317Z,99983.91
2022-10-15T21:41:54.053Z,99977.94
2022-10-15T21:46:52.782Z,99979.84
2022-10-15T21:51:51.454Z,99977.09
2022-10-15T21:56:50.182Z,99981.19
2022-10-15T22:01:49.138Z,99982.25
2022-10-15T22:06:48.270Z,99986.63
2022-10-15T22:11:47.028Z,99996.97
2022-10-15T22:16:45.835Z,99999.69
2022-10-15T22:21:45.760Z,100000.78
2022-10-15T22:26:47.812Z,100005.13
2022-10-15T22:31:47.366Z,100002.16
2022-10-15T22:36:46.591Z,100003.19
2022-10-15T22:41:47.500Z,100008.66
2022-10-15T22:46:49.343Z,100004.28
2022-10-15T22:51:49.580Z,100011.69
2022-10-15T22:56:49.538Z,100023.63
2022-10-15T23:01:48.385Z,100026.66
2022-10-15T23:06:47.119Z,100028.81
2022-10-15T23:11:46.539Z,100034.81
2022-10-15T23:16:47.281Z,100020.16
2022-10-15T23:21:57.555Z,100011.44
2022-10-15T23:26:56.299Z,100020.97
2022-10-15T23:31:55.149Z,100004.09
2022-10-15T23:36:53.952Z,100015.53
2022-10-15T23:41:53.313Z,100021.53
2022-10-15T23:46:52.325Z,100023.16
2022-10-15T23:51:51.148Z,100034.56
2022-10-15T23:56:49.838Z,100018.78
